createdAt,value
2023-05-02T00:00:45.483Z,60.70
2023-05-02T00:03:12.818Z,61.10
2023-05-02T00:05:40.619Z,60.70
2023-05-02T00:08:07.482Z,60.90
2023-05-02T00:10:34.551Z,61.00
2023-05-02T00:13:01.244Z,61.00
2023-05-02T00:15:27.973Z,61.30
2023-05-02T00:17:54.700Z,62.20
2023-05-02T00:20:21.492Z,62.50
2023-05-02T00:22:48.258Z,62.50
2023-05-02T00:25:17.056Z,62.80
2023-05-02T00:27:46.531Z,62.60
2023-05-02T00:30:14.142Z,62.80
2023-05-02T00:32:40.969Z,62.90
2023-05-02T00:35:08.330Z,63.10
2023-05-02T00:37:35.284Z,63.80
2023-05-02T00:40:02.952Z,63.60
2023-05-02T00:42:31.565Z,63.80
2023-05-02T00:44:58.354Z,64.10
2023-05-02T00:47:25.266Z,64.20
2023-05-02T00:49:52.082Z,64.40
2023-05-02T00:52:19.459Z,64.80
2023-05-02T00:54:47.181Z,65.10
2023-05-02T00:57:13.978Z,65.40
2023-05-02T00:59:40.709Z,65.90
2023-05-02T01:02:22.744Z,66.50
2023-05-02T01:05:17.249Z,66.60
2023-05-02T01:08:09.109Z,67.10
2023-05-02T01:10:44.702Z,68.60
2023-05-02T01:13:17.715Z,67.70
2023-05-02T01:15:45.660Z,68.30
2023-05-02T01:18:14.550Z,68.60
2023-05-02T01:20:44.933Z,68.80
2023-05-02T01:23:23.472Z,69.20
2023-05-02T01:26:12.523Z,69.60
2023-05-02T01:29:05.964Z,69.90
2023-05-02T01:31:37.279Z,70.20
2023-05-02T01:34:07.977Z,70.10
2023-05-02T01:36:36.133Z,70.10
2023-05-02T01:39:04.372Z,70.50
2023-05-02T01:41:34.767Z,70.50
2023-05-02T01:44:03.032Z,70.90
2023-05-02T01:46:33.462Z,71.40
2023-05-02T01:49:03.987Z,72.00
2023-05-02T01:51:46.036Z,72.90
2023-05-02T01:54:15.251Z,72.60
2023-05-02T01:56:43.640Z,73.50
2023-05-02T01:59:14.104Z,74.20
2023-05-02T02:01:43.496Z,74.50
2023-05-02T02:04:12.858Z,75.50
2023-05-02T02:06:42.420Z,76.30
2023-05-02T02:09:09.507Z,77.10
2023-05-02T02:11:44.032Z,77.60
2023-05-02T02:14:26.273Z,78.10
2023-05-02T02:16:56.205Z,78.50
2023-05-02T02:19:23.798Z,78.90
2023-05-02T02:21:51.553Z,79.00
2023-05-02T02:24:21.783Z,79.70
2023-05-02T02:26:48.417Z,79.70
2023-05-02T02:29:15.117Z,80.40
2023-05-02T02:31:41.815Z,80.60
2023-05-02T02:34:08.674Z,80.70
2023-05-02T02:37:07.389Z,80.70
2023-05-02T02:39:59.921Z,80.90
2023-05-02T02:42:44.012Z,81.30
2023-05-02T02:45:22.751Z,81.50
2023-05-02T02:47:58.788Z,82.00
2023-05-02T02:50:32.319Z,82.30
2023-05-02T02:53:06.891Z,82.50
2023-05-02T02:56:06.243Z,82.40
2023-05-02T02:58:39.091Z,82.50
2023-05-02T03:01:10.884Z,82.50
2023-05-02T03:03:40.202Z,82.50
2023-05-02T03:06:07.044Z,82.90
2023-05-02T03:08:44.366Z,83.60
2023-05-02T03:11:11.366Z,83.80
2023-05-02T03:13:38.069Z,83.90
2023-05-02T03:16:32.537Z,84.20
2023-05-02T03:18:59.467Z,84.00
2023-05-02T03:21:26.136Z,84.30
2023-05-02T03:23:53.111Z,85.10
2023-05-02T03:26:19.778Z,85.00
2023-05-02T03:28:46.835Z,85.70
2023-05-02T03:31:14.781Z,86.00
2023-05-02T03:33:41.561Z,85.70
2023-05-02T03:36:08.672Z,86.00
2023-05-02T03:38:35.461Z,85.90
2023-05-02T03:41:02.945Z,85.90
2023-05-02T03:43:30.398Z,86.30
2023-05-02T03:45:57.148Z,86.10
2023-05-02T03:48:24.200Z,85.80
2023-05-02T03:50:50.934Z,86.20
2023-05-02T03:53:17.615Z,86.30
2023-05-02T03:55:46.410Z,86.10
2023-05-02T03:58:13.142Z,86.00
2023-05-02T04:00:39.873Z,86.30
2023-05-02T04:03:07.285Z,86.30
2023-05-02T04:05:34.076Z,86.40
2023-05-02T04:08:02.080Z,86.40
2023-05-02T04:10:28.867Z,86.40
2023-05-02T04:12:55.614Z,86.10
2023-05-02T04:15:22.329Z,86.50
2023-05-02T04:17:49.148Z,86.10
2023-05-02T04:20:16.297Z,86.20
2023-05-02T04:22:43.092Z,86.20
2023-05-02T04:25:09.839Z,86.30
2023-05-02T04:27:36.620Z,86.60
2023-05-02T04:30:03.743Z,86.60
2023-05-02T04:32:30.654Z,86.70
2023-05-02T04:34:57.316Z,86.30
2023-05-02T04:37:25.296Z,86.00
2023-05-02T04:39:51.991Z,86.00
2023-05-02T04:42:18.671Z,86.10
2023-05-02T04:44:45.424Z,85.90
2023-05-02T04:47:12.117Z,86.10
2023-05-02T04:49:38.738Z,85.90
2023-05-02T04:52:06.261Z,86.10
2023-05-02T04:54:34.210Z,86.30
2023-05-02T04:57:03.519Z,86.00
2023-05-02T04:59:30.572Z,85.80
2023-05-02T05:01:57.400Z,85.80
2023-05-02T05:04:25.042Z,85.80
2023-05-02T05:06:51.710Z,85.60
2023-05-02T05:09:18.366Z,85.50
2023-05-02T05:11:46.245Z,85.60
2023-05-02T05:14:12.972Z,85.60
2023-05-02T05:16:39.869Z,85.10
2023-05-02T05:19:06.674Z,85.20
2023-05-02T05:21:33.386Z,84.80
2023-05-02T05:24:00.332Z,84.10
2023-05-02T05:26:27.279Z,84.60
2023-05-02T05:28:53.950Z,84.50
2023-05-02T05:31:20.656Z,84.40
2023-05-02T05:33:47.428Z,84.10
2023-05-02T05:36:17.429Z,83.70
2023-05-02T05:38:44.573Z,83.70
2023-05-02T05:41:11.348Z,83.70
2023-05-02T05:43:38.379Z,84.10
2023-05-02T05:46:05.618Z,84.50
2023-05-02T05:48:32.309Z,84.50
2023-05-02T05:51:03.161Z,84.40
2023-05-02T05:53:29.837Z,84.20
2023-05-02T05:55:56.502Z,84.20
2023-05-02T05:58:23.090Z,84.80
2023-05-02T06:00:50.551Z,84.70
2023-05-02T06:03:17.365Z,85.30
2023-05-02T06:05:44.027Z,85.20
2023-05-02T06:08:10.718Z,84.80
2023-05-02T06:10:37.409Z,84.10
2023-05-02T06:13:04.078Z,83.70
2023-05-02T06:15:34.187Z,83.20
2023-05-02T06:18:00.904Z,83.20
2023-05-02T06:20:27.635Z,81.30
2023-05-02T06:22:54.282Z,81.50
2023-05-02T06:25:21.039Z,81.10
2023-05-02T06:27:47.692Z,81.20
2023-05-02T06:30:14.403Z,80.10
2023-05-02T06:32:44.001Z,79.70
2023-05-02T06:35:11.920Z,77.80
2023-05-02T06:37:38.693Z,78.60
2023-05-02T06:40:05.807Z,79.00
2023-05-02T06:42:32.516Z,79.10
2023-05-02T06:44:59.126Z,79.60
2023-05-02T06:47:26.401Z,79.70
2023-05-02T06:49:53.779Z,81.00
2023-05-02T06:52:20.480Z,81.50
2023-05-02T06:54:47.219Z,82.30
2023-05-02T06:57:14.090Z,81.20
2023-05-02T06:59:40.837Z,81.40
2023-05-02T07:02:08.417Z,81.20
2023-05-02T07:04:35.075Z,81.30
2023-05-02T07:07:01.832Z,80.30
2023-05-02T07:09:28.552Z,81.00
2023-05-02T07:11:55.244Z,79.20
2023-05-02T07:14:22.025Z,77.20
2023-05-02T07:16:48.795Z,76.40
2023-05-02T07:19:15.656Z,75.80
2023-05-02T07:21:42.252Z,74.70
2023-05-02T07:24:08.979Z,73.40
2023-05-02T07:26:35.645Z,74.20
2023-05-02T07:29:02.368Z,73.50
2023-05-02T07:31:29.372Z,73.50
2023-05-02T07:33:56.348Z,73.70
2023-05-02T07:36:23.110Z,73.00
2023-05-02T07:38:49.750Z,75.30
2023-05-02T07:41:16.586Z,78.20
2023-05-02T07:43:43.284Z,77.30
2023-05-02T07:46:10.108Z,77.90
2023-05-02T07:48:37.134Z,77.90
2023-05-02T07:51:10.954Z,77.00
2023-05-02T07:53:37.629Z,76.80
2023-05-02T07:56:06.850Z,76.70
2023-05-02T07:58:33.531Z,75.60
2023-05-02T08:01:00.262Z,73.20
2023-05-02T08:03:28.231Z,73.10
2023-05-02T08:05:55.055Z,71.50
2023-05-02T08:08:21.972Z,70.10
2023-05-02T08:10:51.204Z,70.10
2023-05-02T08:13:18.266Z,68.80
2023-05-02T08:15:45.126Z,69.40
2023-05-02T08:18:12.178Z,70.00
2023-05-02T08:20:38.795Z,69.80
2023-05-02T08:23:05.567Z,69.30
2023-05-02T08:25:32.297Z,71.90
2023-05-02T08:27:58.951Z,69.30
2023-05-02T08:30:25.646Z,69.10
2023-05-02T08:32:52.370Z,64.40
2023-05-02T08:35:19.122Z,64.00
2023-05-02T08:37:45.740Z,64.50
2023-05-02T08:40:12.907Z,66.00
2023-05-02T08:42:43.818Z,66.70
2023-05-02T08:45:14.109Z,66.80
2023-05-02T08:47:43.117Z,67.20
2023-05-02T08:50:11.160Z,68.40
2023-05-02T08:52:39.297Z,69.60
2023-05-02T08:55:09.539Z,68.40
2023-05-02T08:57:36.293Z,70.30
2023-05-02T09:00:03.054Z,72.80
2023-05-02T09:02:59.047Z,75.60
2023-05-02T09:05:25.849Z,77.20
2023-05-02T09:07:52.839Z,73.80
2023-05-02T09:10:21.511Z,72.90
2023-05-02T09:12:48.345Z,74.20
2023-05-02T09:15:19.203Z,76.00
2023-05-02T09:17:48.208Z,76.70
2023-05-02T09:20:16.829Z,75.00
2023-05-02T09:22:51.758Z,74.70
2023-05-02T09:25:20.078Z,75.40
2023-05-02T09:28:04.943Z,75.90
2023-05-02T09:30:32.701Z,75.40
2023-05-02T09:32:59.569Z,76.20
2023-05-02T09:35:26.366Z,77.40
2023-05-02T09:37:59.546Z,77.80
2023-05-02T09:40:27.471Z,78.60
2023-05-02T09:42:54.149Z,80.10
2023-05-02T09:45:24.866Z,79.10
2023-05-02T09:47:52.776Z,78.80
2023-05-02T09:50:35.690Z,76.20
2023-05-02T09:53:09.368Z,74.40
2023-05-02T09:55:36.328Z,75.40
2023-05-02T09:58:03.393Z,76.20
2023-05-02T10:00:44.791Z,72.40
2023-05-02T10:03:15.495Z,68.80
2023-05-02T10:05:44.125Z,68.20
2023-05-02T10:08:12.405Z,68.30
2023-05-02T10:10:45.938Z,70.40
2023-05-02T10:13:14.409Z,71.00
2023-05-02T10:15:44.755Z,70.60
2023-05-02T10:18:21.228Z,71.70
2023-05-02T10:20:59.148Z,71.70
2023-05-02T10:23:28.026Z,72.10
2023-05-02T10:25:56.323Z,72.70
2023-05-02T10:28:24.877Z,73.50
2023-05-02T10:30:53.053Z,71.40
2023-05-02T10:33:22.435Z,72.20
2023-05-02T10:35:49.542Z,73.80
2023-05-02T10:38:19.267Z,71.80
2023-05-02T10:40:57.666Z,68.80
2023-05-02T10:43:26.953Z,69.70
2023-05-02T10:45:54.822Z,69.40
2023-05-02T10:48:26.691Z,68.90
2023-05-02T10:50:55.876Z,68.20
2023-05-02T10:53:31.028Z,68.40
2023-05-02T10:56:18.058Z,69.60
2023-05-02T10:58:46.301Z,70.50
2023-05-02T11:01:26.358Z,71.60
2023-05-02T11:03:58.826Z,71.60
2023-05-02T11:06:26.409Z,72.80
2023-05-02T11:08:53.357Z,73.60
2023-05-02T11:11:39.633Z,73.80
2023-05-02T11:14:06.294Z,75.10
2023-05-02T11:17:00.955Z,73.90
2023-05-02T11:19:31.004Z,74.30
2023-05-02T11:22:27.047Z,74.00
2023-05-02T11:24:54.452Z,74.10
2023-05-02T11:27:30.686Z,74.50
2023-05-02T11:29:59.200Z,75.80
2023-05-02T11:32:46.263Z,74.90
2023-05-02T11:35:26.933Z,73.40
2023-05-02T11:37:58.757Z,72.40
2023-05-02T11:40:27.152Z,71.20
2023-05-02T11:42:54.390Z,70.90
2023-05-02T11:45:21.513Z,70.50
2023-05-02T11:47:50.868Z,71.70
2023-05-02T11:50:18.452Z,73.50
2023-05-02T11:52:46.017Z,71.80
2023-05-02T11:55:14.294Z,72.30
2023-05-02T11:57:42.395Z,74.10
2023-05-02T12:00:11.162Z,72.90
2023-05-02T12:02:44.696Z,73.60
2023-05-02T12:05:13.433Z,70.60
2023-05-02T12:07:45.265Z,70.20
2023-05-02T12:10:13.714Z,68.50
2023-05-02T12:12:41.586Z,67.90
2023-05-02T12:15:10.570Z,68.20
2023-05-02T12:17:39.536Z,67.80
2023-05-02T12:20:16.550Z,66.30
2023-05-02T12:22:43.363Z,65.50
2023-05-02T12:25:10.355Z,65.00
2023-05-02T12:27:37.923Z,64.80
2023-05-02T12:30:05.965Z,64.80
2023-05-02T12:32:34.783Z,64.40
2023-05-02T12:35:03.762Z,63.30
2023-05-02T12:37:30.675Z,62.80
2023-05-02T12:39:57.399Z,63.20
2023-05-02T12:42:25.868Z,62.40
2023-05-02T12:44:53.186Z,63.80
2023-05-02T12:47:22.491Z,62.40
2023-05-02T12:49:50.585Z,64.60
2023-05-02T12:52:18.994Z,64.70
2023-05-02T12:54:46.599Z,63.80
2023-05-02T12:57:26.423Z,65.70
2023-05-02T12:59:54.495Z,65.70
2023-05-02T13:02:22.660Z,65.60
2023-05-02T13:04:49.435Z,64.40
2023-05-02T13:07:16.245Z,63.70
2023-05-02T13:09:42.957Z,62.00
2023-05-02T13:12:09.950Z,61.80
2023-05-02T13:14:36.681Z,63.50
2023-05-02T13:17:03.982Z,61.90
2023-05-02T13:19:31.739Z,62.30
2023-05-02T13:21:58.612Z,63.40
2023-05-02T13:24:25.666Z,64.90
2023-05-02T13:26:52.291Z,63.90
2023-05-02T13:29:18.904Z,61.80
2023-05-02T13:31:45.563Z,60.60
2023-05-02T13:34:12.392Z,55.70
2023-05-02T13:36:46.107Z,56.70
2023-05-02T13:39:13.833Z,55.20
2023-05-02T13:41:41.681Z,56.20
2023-05-02T13:44:09.347Z,54.60
2023-05-02T13:46:37.787Z,56.00
2023-05-02T13:49:07.002Z,57.20
2023-05-02T13:51:33.982Z,57.10
2023-05-02T13:54:01.289Z,57.20
2023-05-02T13:56:28.308Z,57.80
2023-05-02T13:58:55.014Z,58.60
2023-05-02T14:01:21.785Z,57.40
2023-05-02T14:03:48.794Z,57.90
2023-05-02T14:06:16.505Z,59.10
2023-05-02T14:08:43.271Z,58.90
2023-05-02T14:11:10.158Z,60.40
2023-05-02T14:13:36.997Z,60.10
2023-05-02T14:16:03.951Z,60.90
2023-05-02T14:18:30.755Z,59.50
2023-05-02T14:20:59.912Z,59.60
2023-05-02T14:23:29.878Z,58.90
2023-05-02T14:25:56.729Z,60.20
2023-05-02T14:28:23.510Z,60.20
2023-05-02T14:30:50.801Z,60.20
2023-05-02T14:33:17.485Z,54.00
2023-05-02T14:35:44.518Z,54.00
2023-05-02T14:38:11.560Z,53.70
2023-05-02T14:40:38.419Z,54.60
2023-05-02T14:43:05.418Z,54.90
2023-05-02T14:45:32.250Z,55.90
2023-05-02T14:47:58.977Z,55.80
2023-05-02T14:50:26.298Z,58.20
2023-05-02T14:52:53.007Z,58.30
2023-05-02T14:55:19.671Z,55.30
2023-05-02T14:57:46.470Z,53.50
2023-05-02T15:00:13.797Z,55.30
2023-05-02T15:02:40.566Z,54.90
2023-05-02T15:05:11.863Z,54.90
2023-05-02T15:07:39.006Z,54.90
2023-05-02T15:10:06.268Z,53.60
2023-05-02T15:12:32.938Z,52.80
2023-05-02T15:14:59.596Z,53.20
2023-05-02T15:17:26.361Z,49.30
2023-05-02T15:19:53.049Z,50.40
2023-05-02T15:22:20.631Z,49.60
2023-05-02T15:24:47.381Z,45.70
2023-05-02T15:27:14.911Z,45.30
2023-05-02T15:29:41.531Z,46.10
2023-05-02T15:32:08.333Z,47.50
2023-05-02T15:34:35.038Z,47.80
2023-05-02T15:37:02.271Z,47.70
2023-05-02T15:39:29.061Z,47.20
2023-05-02T15:41:56.901Z,48.40
2023-05-02T15:44:23.565Z,47.40
2023-05-02T15:46:50.330Z,46.90
2023-05-02T15:49:17.012Z,46.70
2023-05-02T15:51:43.707Z,47.10
2023-05-02T15:54:10.442Z,49.00
2023-05-02T15:56:37.436Z,49.70
2023-05-02T15:59:04.104Z,51.40
2023-05-02T16:01:30.716Z,51.70
2023-05-02T16:03:57.385Z,51.50
2023-05-02T16:06:24.553Z,51.20
2023-05-02T16:08:51.312Z,50.00
2023-05-02T16:11:18.052Z,52.20
2023-05-02T16:13:44.738Z,51.20
2023-05-02T16:16:11.768Z,50.90
2023-05-02T16:18:38.448Z,49.60
2023-05-02T16:21:05.583Z,50.40
2023-05-02T16:23:32.258Z,50.50
2023-05-02T16:26:01.453Z,51.00
2023-05-02T16:28:28.240Z,52.30
2023-05-02T16:30:55.527Z,50.40
2023-05-02T16:33:22.564Z,50.10
2023-05-02T16:35:49.256Z,49.60
2023-05-02T16:38:16.080Z,49.20
2023-05-02T16:40:42.890Z,49.50
2023-05-02T16:43:09.511Z,47.80
2023-05-02T16:45:36.296Z,49.30
2023-05-02T16:48:04.141Z,49.50
2023-05-02T16:50:30.807Z,48.20
2023-05-02T16:52:57.461Z,46.70
2023-05-02T16:55:24.174Z,47.80
2023-05-02T16:57:50.831Z,47.90
2023-05-02T17:00:18.315Z,48.20
2023-05-02T17:02:45.144Z,44.70
2023-05-02T17:05:13.109Z,45.60
2023-05-02T17:07:39.807Z,43.50
2023-05-02T17:10:07.406Z,42.50
2023-05-02T17:12:34.014Z,42.00
2023-05-02T17:15:02.183Z,43.70
2023-05-02T17:17:30.847Z,44.10
2023-05-02T17:19:57.537Z,43.20
2023-05-02T17:22:24.330Z,44.50
2023-05-02T17:24:53.965Z,43.80
2023-05-02T17:27:20.782Z,44.50
2023-05-02T17:29:47.489Z,44.40
2023-05-02T17:32:15.700Z,44.40
2023-05-02T17:34:43.403Z,40.50
2023-05-02T17:37:10.283Z,39.20
2023-05-02T17:39:36.975Z,38.50
2023-05-02T17:42:03.689Z,38.00
2023-05-02T17:44:35.976Z,38.70
2023-05-02T17:47:03.829Z,38.30
2023-05-02T17:49:30.584Z,38.60
2023-05-02T17:51:57.260Z,39.70
2023-05-02T17:54:24.036Z,40.30
2023-05-02T17:56:51.255Z,39.50
2023-05-02T17:59:18.806Z,41.50
2023-05-02T18:01:45.675Z,41.80
2023-05-02T18:04:14.692Z,41.40
2023-05-02T18:06:41.624Z,40.40
2023-05-02T18:09:08.789Z,41.70
2023-05-02T18:11:35.499Z,42.80
2023-05-02T18:14:05.861Z,44.00
2023-05-02T18:16:34.417Z,44.90
2023-05-02T18:19:01.568Z,43.70
2023-05-02T18:21:28.500Z,43.50
2023-05-02T18:23:56.773Z,42.70
2023-05-02T18:26:23.483Z,42.50
2023-05-02T18:28:53.208Z,43.50
2023-05-02T18:31:20.772Z,43.90
2023-05-02T18:33:47.731Z,44.60
2023-05-02T18:36:19.021Z,45.00
2023-05-02T18:38:46.120Z,44.80
2023-05-02T18:41:12.808Z,45.60
2023-05-02T18:43:39.494Z,44.80
2023-05-02T18:46:07.547Z,44.40
2023-05-02T18:48:45.441Z,44.00
2023-05-02T18:51:12.100Z,44.50
2023-05-02T18:53:38.809Z,45.70
2023-05-02T18:56:13.434Z,46.70
2023-05-02T18:58:40.999Z,46.20
2023-05-02T19:01:20.107Z,47.80
2023-05-02T19:03:50.625Z,47.90
2023-05-02T19:06:18.649Z,48.50
2023-05-02T19:08:46.721Z,49.50
2023-05-02T19:11:13.755Z,48.90
2023-05-02T19:13:40.823Z,48.90
2023-05-02T19:16:14.536Z,49.10
2023-05-02T19:18:43.286Z,49.20
2023-05-02T19:21:13.826Z,48.70
2023-05-02T19:23:41.835Z,48.30
2023-05-02T19:26:16.681Z,48.10
2023-05-02T19:28:47.873Z,48.70
2023-05-02T19:31:19.488Z,48.30
2023-05-02T19:33:51.586Z,48.00
2023-05-02T19:36:23.244Z,48.60
2023-05-02T19:38:52.099Z,49.00
2023-05-02T19:41:19.129Z,48.50
2023-05-02T19:43:48.125Z,48.50
2023-05-02T19:46:15.200Z,48.10
2023-05-02T19:48:42.211Z,48.00
2023-05-02T19:51:09.314Z,48.20
2023-05-02T19:53:37.421Z,48.00
2023-05-02T19:56:07.262Z,48.60
2023-05-02T19:58:34.426Z,48.80
2023-05-02T20:01:01.427Z,48.60
2023-05-02T20:03:28.329Z,49.80
2023-05-02T20:05:57.472Z,50.90
2023-05-02T20:08:27.471Z,50.90
2023-05-02T20:10:55.187Z,51.80
2023-05-02T20:13:21.992Z,51.70
2023-05-02T20:15:52.863Z,50.90
2023-05-02T20:18:20.384Z,51.80
2023-05-02T20:20:47.319Z,52.60
2023-05-02T20:23:14.530Z,52.50
2023-05-02T20:25:42.660Z,52.20
2023-05-02T20:28:10.077Z,52.70
2023-05-02T20:30:38.957Z,53.60
2023-05-02T20:33:14.964Z,54.30
2023-05-02T20:35:42.681Z,53.90
2023-05-02T20:38:09.859Z,54.10
2023-05-02T20:40:39.758Z,55.00
2023-05-02T20:43:06.561Z,55.40
2023-05-02T20:45:33.364Z,55.90
2023-05-02T20:48:00.051Z,56.40
2023-05-02T20:50:27.046Z,56.50
2023-05-02T20:52:54.334Z,57.30
2023-05-02T20:55:22.958Z,57.80
2023-05-02T20:57:52.982Z,58.10
2023-05-02T21:00:22.374Z,58.40
2023-05-02T21:02:49.308Z,58.10
2023-05-02T21:05:16.115Z,58.20
2023-05-02T21:07:42.824Z,57.80
2023-05-02T21:10:09.897Z,57.60
2023-05-02T21:12:36.613Z,58.20
2023-05-02T21:15:03.400Z,59.60
2023-05-02T21:17:30.121Z,59.50
2023-05-02T21:19:57.504Z,59.10
2023-05-02T21:22:24.188Z,59.60
2023-05-02T21:24:51.126Z,59.50
2023-05-02T21:27:17.832Z,59.00
2023-05-02T21:29:44.546Z,59.50
2023-05-02T21:32:11.402Z,60.00
2023-05-02T21:34:38.228Z,62.00
2023-05-02T21:37:04.918Z,61.10
2023-05-02T21:39:33.177Z,61.00
2023-05-02T21:42:01.357Z,60.60
2023-05-02T21:44:28.071Z,60.40
2023-05-02T21:46:54.808Z,59.70
2023-05-02T21:49:21.792Z,60.60
2023-05-02T21:51:48.460Z,59.50
2023-05-02T21:54:15.140Z,59.30
2023-05-02T21:56:42.933Z,59.50
2023-05-02T21:59:09.569Z,60.50
2023-05-02T22:01:36.203Z,60.00
2023-05-02T22:04:02.886Z,60.50
2023-05-02T22:06:29.529Z,61.70
2023-05-02T22:08:56.199Z,62.00
2023-05-02T22:11:24.270Z,62.30
2023-05-02T22:13:51.114Z,62.60
2023-05-02T22:16:17.870Z,62.80
2023-05-02T22:18:44.680Z,62.60
2023-05-02T22:21:12.047Z,62.20
2023-05-02T22:23:38.850Z,62.50
2023-05-02T22:26:05.858Z,62.70
2023-05-02T22:28:32.513Z,64.20
2023-05-02T22:30:59.155Z,63.10
2023-05-02T22:33:26.009Z,63.60
2023-05-02T22:35:52.684Z,64.10
2023-05-02T22:38:20.256Z,63.70
2023-05-02T22:40:47.001Z,64.20
2023-05-02T22:43:13.681Z,64.50
2023-05-02T22:45:43.024Z,64.50
2023-05-02T22:48:09.775Z,64.80
2023-05-02T22:50:36.521Z,65.20
2023-05-02T22:53:04.026Z,66.20
2023-05-02T22:55:30.940Z,66.50
2023-05-02T22:57:58.336Z,67.10
2023-05-02T23:00:25.202Z,67.60
2023-05-02T23:02:52.051Z,67.60
2023-05-02T23:05:18.927Z,68.20
2023-05-02T23:07:45.861Z,69.10
2023-05-02T23:10:13.903Z,69.20
2023-05-02T23:12:41.928Z,69.40
2023-05-02T23:15:09.283Z,69.90
2023-05-02T23:17:41.552Z,70.50
2023-05-02T23:20:12.611Z,71.50
2023-05-02T23:22:45.824Z,72.00
2023-05-02T23:25:13.745Z,72.10
2023-05-02T23:27:40.554Z,72.10
2023-05-02T23:30:08.007Z,72.90
2023-05-02T23:32:34.878Z,73.20
2023-05-02T23:35:01.873Z,74.50
2023-05-02T23:37:28.896Z,74.00
2023-05-02T23:39:57.626Z,74.40
2023-05-02T23:42:24.347Z,74.30
2023-05-02T23:44:51.076Z,75.10
2023-05-02T23:47:17.828Z,75.60
2023-05-02T23:49:44.490Z,75.80
2023-05-02T23:52:11.158Z,76.00
2023-05-02T23:54:37.783Z,76.20
2023-05-02T23:57:04.478Z,77.10
2023-05-02T23:59:31.537Z,77.00
